sensor_id;sensor_type;location;lat;lon;timestamp;pressure;altitude;pressure_sealevel;temperature
28305;BMP280;15569;42.652;23.040;2023-04-24T00:00:32;92749.66;;;15.24
28305;BMP280;15569;42.652;23.040;2023-04-24T00:02:57;92748.31;;;15.25
28305;BMP280;15569;42.652;23.040;2023-04-24T00:05:23;92741.78;;;15.37
28305;BMP280;15569;42.652;23.040;2023-04-24T00:07:49;92755.59;;;15.41
28305;BMP280;15569;42.652;23.040;2023-04-24T00:10:18;92749.41;;;15.40
28305;BMP280;15569;42.652;23.040;2023-04-24T00:12:43;92741.94;;;15.43
28305;BMP280;15569;42.652;23.040;2023-04-24T00:15:09;92755.00;;;15.44
28305;BMP280;15569;42.652;23.040;2023-04-24T00:17:35;92745.94;;;15.38
28305;BMP280;15569;42.652;23.040;2023-04-24T00:20:00;92751.03;;;15.49
28305;BMP280;15569;42.652;23.040;2023-04-24T00:22:27;92749.50;;;15.44
28305;BMP280;15569;42.652;23.040;2023-04-24T00:24:54;92748.00;;;15.39
28305;BMP280;15569;42.652;23.040;2023-04-24T00:27:19;92738.50;;;15.42
28305;BMP280;15569;42.652;23.040;2023-04-24T00:29:45;92730.81;;;15.37
28305;BMP280;15569;42.652;23.040;2023-04-24T00:32:10;92736.41;;;15.41
28305;BMP280;15569;42.652;23.040;2023-04-24T00:34:36;92741.25;;;15.42
28305;BMP280;15569;42.652;23.040;2023-04-24T00:37:01;92738.50;;;15.42
28305;BMP280;15569;42.652;23.040;2023-04-24T00:39:27;92738.63;;;15.46
28305;BMP280;15569;42.652;23.040;2023-04-24T00:41:53;92731.88;;;15.51
28305;BMP280;15569;42.652;23.040;2023-04-24T00:44:18;92724.91;;;15.46
28305;BMP280;15569;42.652;23.040;2023-04-24T00:46:44;92721.53;;;15.48
28305;BMP280;15569;42.652;23.040;2023-04-24T00:49:10;92710.75;;;15.54
28305;BMP280;15569;42.652;23.040;2023-04-24T00:51:35;92716.88;;;15.52
28305;BMP280;15569;42.652;23.040;2023-04-24T00:54:01;92696.81;;;15.46
28305;BMP280;15569;42.652;23.040;2023-04-24T00:56:28;92701.81;;;15.53
28305;BMP280;15569;42.652;23.040;2023-04-24T00:58:53;92705.09;;;15.48
28305;BMP280;15569;42.652;23.040;2023-04-24T01:01:20;92709.97;;;15.51
28305;BMP280;15569;42.652;23.040;2023-04-24T01:03:46;92705.09;;;15.48
28305;BMP280;15569;42.652;23.040;2023-04-24T01:06:12;92694.06;;;15.44
28305;BMP280;15569;42.652;23.040;2023-04-24T01:08:38;92691.41;;;15.48
28305;BMP280;15569;42.652;23.040;2023-04-24T01:11:05;92684.44;;;15.43
28305;BMP280;15569;42.652;23.040;2023-04-24T01:13:32;92685.25;;;15.47
28305;BMP280;15569;42.652;23.040;2023-04-24T01:15:58;92685.97;;;15.50
28305;BMP280;15569;42.652;23.040;2023-04-24T01:18:23;92680.75;;;15.34
28305;BMP280;15569;42.652;23.040;2023-04-24T01:20:50;92677.84;;;15.28
28305;BMP280;15569;42.652;23.040;2023-04-24T01:23:18;92674.72;;;15.38
28305;BMP280;15569;42.652;23.040;2023-04-24T01:25:43;92671.81;;;15.32
28305;BMP280;15569;42.652;23.040;2023-04-24T01:28:09;92670.41;;;15.31
28305;BMP280;15569;42.652;23.040;2023-04-24T01:30:35;92674.41;;;15.27
28305;BMP280;15569;42.652;23.040;2023-04-24T01:33:01;92681.31;;;15.28
28305;BMP280;15569;42.652;23.040;2023-04-24T01:35:26;92690.75;;;15.23
28305;BMP280;15569;42.652;23.040;2023-04-24T01:37:52;92691.53;;;15.26
28305;BMP280;15569;42.652;23.040;2023-04-24T01:40:17;92689.13;;;15.14
28305;BMP280;15569;42.652;23.040;2023-04-24T01:42:45;92681.63;;;15.15
28305;BMP280;15569;42.652;23.040;2023-04-24T01:45:11;92692.91;;;15.27
28305;BMP280;15569;42.652;23.040;2023-04-24T01:47:37;92701.06;;;15.25
28305;BMP280;15569;42.652;23.040;2023-04-24T01:50:04;92696.84;;;15.20
28305;BMP280;15569;42.652;23.040;2023-04-24T01:52:30;92698.75;;;15.15
28305;BMP280;15569;42.652;23.040;2023-04-24T01:54:59;92703.63;;;14.93
28305;BMP280;15569;42.652;23.040;2023-04-24T01:57:25;92697.03;;;15.02
28305;BMP280;15569;42.652;23.040;2023-04-24T01:59:51;92687.66;;;14.88
28305;BMP280;15569;42.652;23.040;2023-04-24T02:02:17;92703.53;;;14.91
28305;BMP280;15569;42.652;23.040;2023-04-24T02:04:42;92696.19;;;14.98
28305;BMP280;15569;42.652;23.040;2023-04-24T02:07:07;92689.25;;;14.95
28305;BMP280;15569;42.652;23.040;2023-04-24T02:09:33;92690.75;;;15.00
28305;BMP280;15569;42.652;23.040;2023-04-24T02:11:58;92688.16;;;15.04
28305;BMP280;15569;42.652;23.040;2023-04-24T02:14:24;92689.94;;;14.93
28305;BMP280;15569;42.652;23.040;2023-04-24T02:16:49;92686.84;;;14.81
28305;BMP280;15569;42.652;23.040;2023-04-24T02:19:14;92674.78;;;14.90
28305;BMP280;15569;42.652;23.040;2023-04-24T02:21:40;92664.41;;;14.87
28305;BMP280;15569;42.652;23.040;2023-04-24T02:24:06;92670.47;;;14.83
28305;BMP280;15569;42.652;23.040;2023-04-24T02:26:31;92665.56;;;14.80
28305;BMP280;15569;42.652;23.040;2023-04-24T02:28:57;92662.91;;;14.82
28305;BMP280;15569;42.652;23.040;2023-04-24T02:31:22;92667.03;;;14.59
28305;BMP280;15569;42.652;23.040;2023-04-24T02:33:48;92672.81;;;14.69
28305;BMP280;15569;42.652;23.040;2023-04-24T02:36:13;92671.22;;;14.62
28305;BMP280;15569;42.652;23.040;2023-04-24T02:38:39;92666.44;;;14.63
28305;BMP280;15569;42.652;23.040;2023-04-24T02:41:04;92663.78;;;14.65
28305;BMP280;15569;42.652;23.040;2023-04-24T02:43:32;92663.00;;;14.62
28305;BMP280;15569;42.652;23.040;2023-04-24T02:45:58;92662.56;;;14.70
28305;BMP280;15569;42.652;23.040;2023-04-24T02:48:23;92657.78;;;14.70
28305;BMP280;15569;42.652;23.040;2023-04-24T02:50:49;92657.78;;;14.70
28305;BMP280;15569;42.652;23.040;2023-04-24T02:53:15;92640.50;;;14.64
28305;BMP280;15569;42.652;23.040;2023-04-24T02:55:41;92660.75;;;14.78
28305;BMP280;15569;42.652;23.040;2023-04-24T02:58:06;92656.66;;;14.79
28305;BMP280;15569;42.652;23.040;2023-04-24T03:00:32;92650.41;;;14.77
28305;BMP280;15569;42.652;23.040;2023-04-24T03:02:57;92655.34;;;14.80
28305;BMP280;15569;42.652;23.040;2023-04-24T03:05:22;92658.81;;;14.83
28305;BMP280;15569;42.652;23.040;2023-04-24T03:07:48;92659.56;;;14.62
28305;BMP280;15569;42.652;23.040;2023-04-24T03:10:13;92656.38;;;14.46
28305;BMP280;15569;42.652;23.040;2023-04-24T03:12:39;92663.88;;;14.45
28305;BMP280;15569;42.652;23.040;2023-04-24T03:15:04;92662.28;;;14.38
28305;BMP280;15569;42.652;23.040;2023-04-24T03:17:30;92664.75;;;14.52
28305;BMP280;15569;42.652;23.040;2023-04-24T03:19:56;92655.25;;;14.31
28305;BMP280;15569;42.652;23.040;2023-04-24T03:22:21;92664.16;;;14.10
28305;BMP280;15569;42.652;23.040;2023-04-24T03:24:46;92656.06;;;14.14
28305;BMP280;15569;42.652;23.040;2023-04-24T03:27:12;92655.72;;;14.25
28305;BMP280;15569;42.652;23.040;2023-04-24T03:29:37;92657.97;;;14.31
28305;BMP280;15569;42.652;23.040;2023-04-24T03:32:02;92654.66;;;14.34
28305;BMP280;15569;42.652;23.040;2023-04-24T03:34:28;92661.47;;;14.33
28305;BMP280;15569;42.652;23.040;2023-04-24T03:36:53;92659.28;;;14.30
28305;BMP280;15569;42.652;23.040;2023-04-24T03:39:18;92663.03;;;14.41
28305;BMP280;15569;42.652;23.040;2023-04-24T03:41:44;92660.31;;;14.41
28305;BMP280;15569;42.652;23.040;2023-04-24T03:44:09;92652.94;;;14.45
28305;BMP280;15569;42.652;23.040;2023-04-24T03:46:35;92664.16;;;14.55
28305;BMP280;15569;42.652;23.040;2023-04-24T03:49:00;92671.91;;;14.63
28305;BMP280;15569;42.652;23.040;2023-04-24T03:51:26;92667.19;;;14.65
28305;BMP280;15569;42.652;23.040;2023-04-24T03:53:53;92669.38;;;14.69
28305;BMP280;15569;42.652;23.040;2023-04-24T03:56:18;92673.50;;;14.70
28305;BMP280;15569;42.652;23.040;2023-04-24T03:58:44;92666.09;;;14.74
28305;BMP280;15569;42.652;23.040;2023-04-24T04:01:09;92660.75;;;14.78
28305;BMP280;15569;42.652;23.040;2023-04-24T04:03:36;92663.47;;;14.78
28305;BMP280;15569;42.652;23.040;2023-04-24T04:06:02;92662.06;;;14.77
28305;BMP280;15569;42.652;23.040;2023-04-24T04:08:27;92656.84;;;14.85
28305;BMP280;15569;42.652;23.040;2023-04-24T04:10:52;92662.66;;;14.97
28305;BMP280;15569;42.652;23.040;2023-04-24T04:13:18;92659.13;;;14.93
28305;BMP280;15569;42.652;23.040;2023-04-24T04:15:43;92664.69;;;14.97
28305;BMP280;15569;42.652;23.040;2023-04-24T04:18:09;92664.09;;;15.00
28305;BMP280;15569;42.652;23.040;2023-04-24T04:20:34;92665.56;;;15.03
28305;BMP280;15569;42.652;23.040;2023-04-24T04:23:00;92660.19;;;15.07
28305;BMP280;15569;42.652;23.040;2023-04-24T04:25:25;92663.56;;;15.06
28305;BMP280;15569;42.652;23.040;2023-04-24T04:27:50;92657.03;;;15.17
28305;BMP280;15569;42.652;23.040;2023-04-24T04:30:16;92672.91;;;15.22
28305;BMP280;15569;42.652;23.040;2023-04-24T04:32:43;92674.28;;;15.21
28305;BMP280;15569;42.652;23.040;2023-04-24T04:35:08;92682.44;;;15.19
28305;BMP280;15569;42.652;23.040;2023-04-24T04:37:34;92670.06;;;15.18
28305;BMP280;15569;42.652;23.040;2023-04-24T04:40:01;92682.50;;;15.21
28305;BMP280;15569;42.652;23.040;2023-04-24T04:42:31;92686.66;;;15.24
28305;BMP280;15569;42.652;23.040;2023-04-24T04:44:57;92688.25;;;15.32
28305;BMP280;15569;42.652;23.040;2023-04-24T04:47:23;92687.53;;;15.31
28305;BMP280;15569;42.652;23.040;2023-04-24T04:49:48;92689.63;;;15.33
28305;BMP280;15569;42.652;23.040;2023-04-24T04:52:14;92687.28;;;15.47
28305;BMP280;15569;42.652;23.040;2023-04-24T04:54:39;92677.09;;;15.51
28305;BMP280;15569;42.652;23.040;2023-04-24T04:57:05;92686.81;;;15.56
28305;BMP280;15569;42.652;23.040;2023-04-24T04:59:31;92684.78;;;15.57
28305;BMP280;15569;42.652;23.040;2023-04-24T05:01:56;92686.28;;;15.62
28305;BMP280;15569;42.652;23.040;2023-04-24T05:04:21;92686.41;;;15.66
28305;BMP280;15569;42.652;23.040;2023-04-24T05:06:47;92679.72;;;15.73
28305;BMP280;15569;42.652;23.040;2023-04-24T05:09:12;92695.72;;;15.82
28305;BMP280;15569;42.652;23.040;2023-04-24T05:11:38;92684.25;;;15.90
28305;BMP280;15569;42.652;23.040;2023-04-24T05:14:03;92682.28;;;15.92
28305;BMP280;15569;42.652;23.040;2023-04-24T05:16:28;92683.53;;;15.89
28305;BMP280;15569;42.652;23.040;2023-04-24T05:18:54;92689.28;;;15.99
28305;BMP280;15569;42.652;23.040;2023-04-24T05:21:19;92684.81;;;16.12
28305;BMP280;15569;42.652;23.040;2023-04-24T05:23:45;92682.28;;;16.22
28305;BMP280;15569;42.652;23.040;2023-04-24T05:26:10;92687.88;;;16.26
28305;BMP280;15569;42.652;23.040;2023-04-24T05:28:36;92683.63;;;16.21
28305;BMP280;15569;42.652;23.040;2023-04-24T05:31:02;92677.00;;;16.30
28305;BMP280;15569;42.652;23.040;2023-04-24T05:33:27;92686.81;;;16.39
28305;BMP280;15569;42.652;23.040;2023-04-24T05:35:53;92676.75;;;16.50
28305;BMP280;15569;42.652;23.040;2023-04-24T05:38:18;92686.69;;;16.65
28305;BMP280;15569;42.652;23.040;2023-04-24T05:40:45;92684.16;;;16.75
28305;BMP280;15569;42.652;23.040;2023-04-24T05:43:11;92684.50;;;16.91
28305;BMP280;15569;42.652;23.040;2023-04-24T05:45:36;92682.56;;;16.97
28305;BMP280;15569;42.652;23.040;2023-04-24T05:48:02;92674.31;;;16.95
28305;BMP280;15569;42.652;23.040;2023-04-24T05:50:28;92682.22;;;17.15
28305;BMP280;15569;42.652;23.040;2023-04-24T05:52:53;92676.25;;;17.25
28305;BMP280;15569;42.652;23.040;2023-04-24T05:55:19;92679.16;;;17.35
28305;BMP280;15569;42.652;23.040;2023-04-24T05:57:45;92678.00;;;17.46
28305;BMP280;15569;42.652;23.040;2023-04-24T06:00:11;92675.41;;;17.54
28305;BMP280;15569;42.652;23.040;2023-04-24T06:02:37;92672.25;;;17.71
28305;BMP280;15569;42.652;23.040;2023-04-24T06:05:03;92677.22;;;17.81
28305;BMP280;15569;42.652;23.040;2023-04-24T06:07:30;92682.78;;;17.83
28305;BMP280;15569;42.652;23.040;2023-04-24T06:09:55;92677.75;;;17.69
28305;BMP280;15569;42.652;23.040;2023-04-24T06:12:22;92684.28;;;17.92
28305;BMP280;15569;42.652;23.040;2023-04-24T06:14:47;92674.91;;;18.07
28305;BMP280;15569;42.652;23.040;2023-04-24T06:17:12;92680.06;;;17.85
28305;BMP280;15569;42.652;23.040;2023-04-24T06:19:38;92674.53;;;17.83
28305;BMP280;15569;42.652;23.040;2023-04-24T06:22:04;92677.16;;;17.77
28305;BMP280;15569;42.652;23.040;2023-04-24T06:24:29;92676.22;;;18.04
28305;BMP280;15569;42.652;23.040;2023-04-24T06:26:55;92686.78;;;18.17
28305;BMP280;15569;42.652;23.040;2023-04-24T06:29:22;92683.13;;;17.65
28305;BMP280;15569;42.652;23.040;2023-04-24T06:31:47;92680.09;;;17.89
28305;BMP280;15569;42.652;23.040;2023-04-24T06:34:13;92671.94;;;17.93
28305;BMP280;15569;42.652;23.040;2023-04-24T06:36:38;92668.88;;;18.18
28305;BMP280;15569;42.652;23.040;2023-04-24T06:39:03;92668.41;;;18.32
28305;BMP280;15569;42.652;23.040;2023-04-24T06:41:29;92673.84;;;18.26
28305;BMP280;15569;42.652;23.040;2023-04-24T06:43:55;92669.19;;;17.93
28305;BMP280;15569;42.652;23.040;2023-04-24T06:46:21;92682.41;;;17.63
28305;BMP280;15569;42.652;23.040;2023-04-24T06:48:52;92684.16;;;17.44
28305;BMP280;15569;42.652;23.040;2023-04-24T06:51:22;92679.19;;;17.37
28305;BMP280;15569;42.652;23.040;2023-04-24T06:53:47;92673.03;;;17.38
28305;BMP280;15569;42.652;23.040;2023-04-24T06:56:13;92660.78;;;17.07
28305;BMP280;15569;42.652;23.040;2023-04-24T06:58:38;92685.69;;;16.50
28305;BMP280;15569;42.652;23.040;2023-04-24T07:01:03;92677.22;;;17.05
28305;BMP280;15569;42.652;23.040;2023-04-24T07:03:29;92671.25;;;17.53
28305;BMP280;15569;42.652;23.040;2023-04-24T07:05:54;92680.56;;;17.75
28305;BMP280;15569;42.652;23.040;2023-04-24T07:08:20;92685.41;;;17.77
28305;BMP280;15569;42.652;23.040;2023-04-24T07:10:47;92658.28;;;17.97
28305;BMP280;15569;42.652;23.040;2023-04-24T07:13:12;92677.34;;;17.87
28305;BMP280;15569;42.652;23.040;2023-04-24T07:15:38;92670.13;;;18.09
28305;BMP280;15569;42.652;23.040;2023-04-24T07:18:04;92665.50;;;18.20
28305;BMP280;15569;42.652;23.040;2023-04-24T07:20:29;92668.38;;;17.45
28305;BMP280;15569;42.652;23.040;2023-04-24T07:22:54;92658.97;;;17.20
28305;BMP280;15569;42.652;23.040;2023-04-24T07:25:20;92657.50;;;17.15
28305;BMP280;15569;42.652;23.040;2023-04-24T07:27:45;92665.97;;;17.27
28305;BMP280;15569;42.652;23.040;2023-04-24T07:30:11;92667.63;;;17.04
28305;BMP280;15569;42.652;23.040;2023-04-24T07:32:36;92658.78;;;16.76
28305;BMP280;15569;42.652;23.040;2023-04-24T07:35:02;92665.81;;;16.83
28305;BMP280;15569;42.652;23.040;2023-04-24T07:37:28;92662.75;;;17.39
28305;BMP280;15569;42.652;23.040;2023-04-24T07:39:54;92667.88;;;17.18
28305;BMP280;15569;42.652;23.040;2023-04-24T07:42:19;92664.66;;;16.94
28305;BMP280;15569;42.652;23.040;2023-04-24T07:44:45;92661.09;;;17.61
28305;BMP280;15569;42.652;23.040;2023-04-24T07:47:13;92656.75;;;16.77
28305;BMP280;15569;42.652;23.040;2023-04-24T07:49:41;92651.75;;;17.39
28305;BMP280;15569;42.652;23.040;2023-04-24T07:52:06;92643.41;;;17.72
28305;BMP280;15569;42.652;23.040;2023-04-24T07:54:32;92643.84;;;18.00
28305;BMP280;15569;42.652;23.040;2023-04-24T07:56:57;92633.19;;;18.21
28305;BMP280;15569;42.652;23.040;2023-04-24T07:59:23;92648.53;;;17.92
28305;BMP280;15569;42.652;23.040;2023-04-24T08:01:48;92647.88;;;17.52
28305;BMP280;15569;42.652;23.040;2023-04-24T08:04:14;92634.06;;;17.89
28305;BMP280;15569;42.652;23.040;2023-04-24T08:06:39;92651.88;;;17.45
28305;BMP280;15569;42.652;23.040;2023-04-24T08:09:05;92636.81;;;17.89
28305;BMP280;15569;42.652;23.040;2023-04-24T08:11:30;92647.03;;;18.29
28305;BMP280;15569;42.652;23.040;2023-04-24T08:13:56;92638.63;;;18.68
28305;BMP280;15569;42.652;23.040;2023-04-24T08:16:22;92639.41;;;18.75
28305;BMP280;15569;42.652;23.040;2023-04-24T08:18:49;92637.81;;;19.17
28305;BMP280;15569;42.652;23.040;2023-04-24T08:21:15;92635.50;;;18.38
28305;BMP280;15569;42.652;23.040;2023-04-24T08:23:42;92616.00;;;18.76
28305;BMP280;15569;42.652;23.040;2023-04-24T08:26:08;92628.59;;;18.93
28305;BMP280;15569;42.652;23.040;2023-04-24T08:28:33;92629.25;;;18.89
28305;BMP280;15569;42.652;23.040;2023-04-24T08:30:59;92617.38;;;19.41
28305;BMP280;15569;42.652;23.040;2023-04-24T08:33:24;92619.09;;;19.78
28305;BMP280;15569;42.652;23.040;2023-04-24T08:35:50;92609.59;;;19.99
28305;BMP280;15569;42.652;23.040;2023-04-24T08:38:16;92615.19;;;18.13
28305;BMP280;15569;42.652;23.040;2023-04-24T08:40:42;92601.28;;;18.53
28305;BMP280;15569;42.652;23.040;2023-04-24T08:43:08;92616.06;;;18.80
28305;BMP280;15569;42.652;23.040;2023-04-24T08:45:35;92597.19;;;18.58
28305;BMP280;15569;42.652;23.040;2023-04-24T08:48:02;92587.63;;;18.63
28305;BMP280;15569;42.652;23.040;2023-04-24T08:50:28;92604.06;;;19.19
28305;BMP280;15569;42.652;23.040;2023-04-24T08:52:54;92594.69;;;18.76
28305;BMP280;15569;42.652;23.040;2023-04-24T08:55:20;92603.28;;;17.99
28305;BMP280;15569;42.652;23.040;2023-04-24T08:57:50;92604.72;;;18.04
28305;BMP280;15569;42.652;23.040;2023-04-24T09:00:17;92589.72;;;18.65
28305;BMP280;15569;42.652;23.040;2023-04-24T09:02:43;92591.41;;;18.36
28305;BMP280;15569;42.652;23.040;2023-04-24T09:05:10;92591.16;;;18.18
28305;BMP280;15569;42.652;23.040;2023-04-24T09:07:39;92575.59;;;18.35
28305;BMP280;15569;42.652;23.040;2023-04-24T09:10:05;92574.13;;;18.87
28305;BMP280;15569;42.652;23.040;2023-04-24T09:12:32;92580.53;;;19.06
28305;BMP280;15569;42.652;23.040;2023-04-24T09:14:58;92565.81;;;19.51
28305;BMP280;15569;42.652;23.040;2023-04-24T09:17:25;92583.28;;;19.84
28305;BMP280;15569;42.652;23.040;2023-04-24T09:19:52;92562.00;;;19.12
28305;BMP280;15569;42.652;23.040;2023-04-24T09:22:17;92567.38;;;18.98
28305;BMP280;15569;42.652;23.040;2023-04-24T09:24:45;92567.75;;;19.41
28305;BMP280;15569;42.652;23.040;2023-04-24T09:27:11;92559.00;;;19.60
28305;BMP280;15569;42.652;23.040;2023-04-24T09:29:37;92566.84;;;18.50
28305;BMP280;15569;42.652;23.040;2023-04-24T09:32:22;92559.31;;;18.55
28305;BMP280;15569;42.652;23.040;2023-04-24T09:34:48;92562.09;;;19.22
28305;BMP280;15569;42.652;23.040;2023-04-24T09:37:29;92580.16;;;19.40
28305;BMP280;15569;42.652;23.040;2023-04-24T09:42:43;92565.28;;;18.95
28305;BMP280;15569;42.652;23.040;2023-04-24T09:45:10;92556.22;;;18.84
28305;BMP280;15569;42.652;23.040;2023-04-24T09:47:37;92556.50;;;19.12
28305;BMP280;15569;42.652;23.040;2023-04-24T09:50:12;92552.56;;;19.36
28305;BMP280;15569;42.652;23.040;2023-04-24T09:52:46;92560.84;;;19.34
28305;BMP280;15569;42.652;23.040;2023-04-24T09:55:19;92547.00;;;19.27
28305;BMP280;15569;42.652;23.040;2023-04-24T10:00:17;92543.47;;;20.11
28305;BMP280;15569;42.652;23.040;2023-04-24T10:02:43;92536.31;;;19.76
28305;BMP280;15569;42.652;23.040;2023-04-24T10:05:11;92543.31;;;19.89
28305;BMP280;15569;42.652;23.040;2023-04-24T10:07:37;92524.41;;;19.49
28305;BMP280;15569;42.652;23.040;2023-04-24T10:10:03;92530.91;;;19.92
28305;BMP280;15569;42.652;23.040;2023-04-24T10:12:29;92531.53;;;19.82
28305;BMP280;15569;42.652;23.040;2023-04-24T10:14:56;92523.66;;;19.41
28305;BMP280;15569;42.652;23.040;2023-04-24T10:17:22;92519.19;;;19.93
28305;BMP280;15569;42.652;23.040;2023-04-24T10:19:49;92515.72;;;19.87
28305;BMP280;15569;42.652;23.040;2023-04-24T10:22:15;92519.06;;;19.69
28305;BMP280;15569;42.652;23.040;2023-04-24T10:24:42;92507.25;;;19.59
28305;BMP280;15569;42.652;23.040;2023-04-24T10:27:09;92503.88;;;19.70
28305;BMP280;15569;42.652;23.040;2023-04-24T10:29:35;92505.19;;;19.59
28305;BMP280;15569;42.652;23.040;2023-04-24T10:32:01;92510.06;;;19.65
28305;BMP280;15569;42.652;23.040;2023-04-24T10:34:27;92508.59;;;19.54
28305;BMP280;15569;42.652;23.040;2023-04-24T10:36:54;92523.34;;;19.04
28305;BMP280;15569;42.652;23.040;2023-04-24T10:39:21;92523.06;;;18.74
28305;BMP280;15569;42.652;23.040;2023-04-24T10:41:48;92527.00;;;18.57
28305;BMP280;15569;42.652;23.040;2023-04-24T10:44:15;92565.47;;;18.49
28305;BMP280;15569;42.652;23.040;2023-04-24T10:46:45;92572.28;;;17.51
28305;BMP280;15569;42.652;23.040;2023-04-24T10:49:10;92580.81;;;16.89
28305;BMP280;15569;42.652;23.040;2023-04-24T10:54:50;92548.25;;;17.09
28305;BMP280;15569;42.652;23.040;2023-04-24T10:59:49;92555.06;;;17.94
28305;BMP280;15569;42.652;23.040;2023-04-24T11:02:15;92538.25;;;18.19
28305;BMP280;15569;42.652;23.040;2023-04-24T11:04:41;92560.03;;;18.57
28305;BMP280;15569;42.652;23.040;2023-04-24T11:07:09;92568.03;;;18.95
28305;BMP280;15569;42.652;23.040;2023-04-24T11:09:34;92549.09;;;19.35
28305;BMP280;15569;42.652;23.040;2023-04-24T11:12:09;92542.53;;;19.74
28305;BMP280;15569;42.652;23.040;2023-04-24T11:17:35;92538.69;;;20.27
28305;BMP280;15569;42.652;23.040;2023-04-24T11:20:06;92537.97;;;20.29
28305;BMP280;15569;42.652;23.040;2023-04-24T11:22:33;92528.38;;;20.36
28305;BMP280;15569;42.652;23.040;2023-04-24T11:25:01;92520.13;;;20.46
28305;BMP280;15569;42.652;23.040;2023-04-24T11:27:41;92511.84;;;20.50
28305;BMP280;15569;42.652;23.040;2023-04-24T11:30:09;92510.50;;;20.53
28305;BMP280;15569;42.652;23.040;2023-04-24T11:32:37;92507.06;;;20.65
28305;BMP280;15569;42.652;23.040;2023-04-24T11:35:05;92505.03;;;20.81
28305;BMP280;15569;42.652;23.040;2023-04-24T11:37:36;92499.56;;;21.23
28305;BMP280;15569;42.652;23.040;2023-04-24T11:40:04;92496.72;;;21.80
28305;BMP280;15569;42.652;23.040;2023-04-24T11:42:34;92500.00;;;22.32
28305;BMP280;15569;42.652;23.040;2023-04-24T11:45:00;92490.53;;;21.61
28305;BMP280;15569;42.652;23.040;2023-04-24T11:47:32;92493.31;;;21.11
28305;BMP280;15569;42.652;23.040;2023-04-24T11:50:02;92487.13;;;20.94
28305;BMP280;15569;42.652;23.040;2023-04-24T11:52:29;92466.91;;;22.00
28305;BMP280;15569;42.652;23.040;2023-04-24T11:54:55;92481.91;;;22.53
28305;BMP280;15569;42.652;23.040;2023-04-24T11:57:22;92471.19;;;23.00
28305;BMP280;15569;42.652;23.040;2023-04-24T11:59:49;92466.44;;;23.67
28305;BMP280;15569;42.652;23.040;2023-04-24T12:02:24;92466.69;;;23.39
28305;BMP280;15569;42.652;23.040;2023-04-24T12:04:50;92452.63;;;24.20
28305;BMP280;15569;42.652;23.040;2023-04-24T12:07:16;92450.94;;;24.39
28305;BMP280;15569;42.652;23.040;2023-04-24T12:09:43;92455.13;;;24.40
28305;BMP280;15569;42.652;23.040;2023-04-24T12:12:09;92437.59;;;24.03
28305;BMP280;15569;42.652;23.040;2023-04-24T12:14:48;92435.97;;;23.59
28305;BMP280;15569;42.652;23.040;2023-04-24T12:17:15;92434.88;;;23.30
28305;BMP280;15569;42.652;23.040;2023-04-24T12:19:46;92439.22;;;23.13
28305;BMP280;15569;42.652;23.040;2023-04-24T12:22:12;92444.84;;;23.01
28305;BMP280;15569;42.652;23.040;2023-04-24T12:24:56;92446.28;;;22.98
28305;BMP280;15569;42.652;23.040;2023-04-24T12:27:22;92442.56;;;22.27
28305;BMP280;15569;42.652;23.040;2023-04-24T12:29:52;92431.00;;;21.84
28305;BMP280;15569;42.652;23.040;2023-04-24T12:32:17;92440.00;;;21.85
28305;BMP280;15569;42.652;23.040;2023-04-24T12:34:43;92421.28;;;21.97
28305;BMP280;15569;42.652;23.040;2023-04-24T12:37:11;92403.66;;;22.47
28305;BMP280;15569;42.652;23.040;2023-04-24T12:39:37;92424.66;;;23.13
28305;BMP280;15569;42.652;23.040;2023-04-24T12:42:03;92420.22;;;22.61
28305;BMP280;15569;42.652;23.040;2023-04-24T12:44:34;92409.63;;;23.60
28305;BMP280;15569;42.652;23.040;2023-04-24T12:47:02;92397.69;;;23.72
28305;BMP280;15569;42.652;23.040;2023-04-24T12:49:31;92402.31;;;23.29
28305;BMP280;15569;42.652;23.040;2023-04-24T12:51:57;92396.94;;;23.77
28305;BMP280;15569;42.652;23.040;2023-04-24T12:54:22;92396.94;;;24.28
28305;BMP280;15569;42.652;23.040;2023-04-24T12:56:48;92385.44;;;24.97
28305;BMP280;15569;42.652;23.040;2023-04-24T12:59:13;92383.38;;;25.72
28305;BMP280;15569;42.652;23.040;2023-04-24T13:01:39;92381.84;;;25.06
28305;BMP280;15569;42.652;23.040;2023-04-24T13:04:05;92371.31;;;24.70
28305;BMP280;15569;42.652;23.040;2023-04-24T13:06:30;92370.03;;;25.04
28305;BMP280;15569;42.652;23.040;2023-04-24T13:08:56;92361.00;;;25.76
28305;BMP280;15569;42.652;23.040;2023-04-24T13:11:23;92355.47;;;25.03
28305;BMP280;15569;42.652;23.040;2023-04-24T13:13:49;92343.41;;;25.51
28305;BMP280;15569;42.652;23.040;2023-04-24T13:16:14;92338.38;;;25.60
28305;BMP280;15569;42.652;23.040;2023-04-24T13:18:40;92330.25;;;25.82
28305;BMP280;15569;42.652;23.040;2023-04-24T13:21:05;92322.13;;;25.72
28305;BMP280;15569;42.652;23.040;2023-04-24T13:23:31;92329.44;;;25.19
28305;BMP280;15569;42.652;23.040;2023-04-24T13:25:56;92317.66;;;25.53
28305;BMP280;15569;42.652;23.040;2023-04-24T13:28:23;92327.06;;;25.68
28305;BMP280;15569;42.652;23.040;2023-04-24T13:30:48;92316.38;;;25.78
28305;BMP280;15569;42.652;23.040;2023-04-24T13:33:14;92321.75;;;25.56
28305;BMP280;15569;42.652;23.040;2023-04-24T13:35:39;92315.34;;;25.96
28305;BMP280;15569;42.652;23.040;2023-04-24T13:38:05;92313.81;;;26.01
28305;BMP280;15569;42.652;23.040;2023-04-24T13:40:31;92310.28;;;26.33
28305;BMP280;15569;42.652;23.040;2023-04-24T13:42:57;92308.47;;;27.03
28305;BMP280;15569;42.652;23.040;2023-04-24T13:45:22;92304.31;;;27.29
28305;BMP280;15569;42.652;23.040;2023-04-24T13:47:48;92303.09;;;27.46
28305;BMP280;15569;42.652;23.040;2023-04-24T13:50:13;92286.91;;;27.76
28305;BMP280;15569;42.652;23.040;2023-04-24T13:52:38;92292.53;;;27.74
28305;BMP280;15569;42.652;23.040;2023-04-24T13:55:04;92296.69;;;28.20
28305;BMP280;15569;42.652;23.040;2023-04-24T13:57:30;92288.97;;;28.63
28305;BMP280;15569;42.652;23.040;2023-04-24T13:59:57;92284.81;;;28.83
28305;BMP280;15569;42.652;23.040;2023-04-24T14:02:26;92282.88;;;26.97
28305;BMP280;15569;42.652;23.040;2023-04-24T14:04:51;92266.97;;;26.91